sensor_id;sensor_type;location;lat;lon;timestamp;pressure;altitude;pressure_sealevel;temperature;humidity
77975;BME280;67164;51.202;0.278;2024-02-15T00:00:41;101011.53;;;22.60;42.36
77975;BME280;67164;51.202;0.278;2024-02-15T00:03:07;101019.60;;;22.27;42.42
77975;BME280;67164;51.202;0.278;2024-02-15T00:05:33;101018.96;;;22.42;42.51
77975;BME280;67164;51.202;0.278;2024-02-15T00:07:59;101022.29;;;22.19;42.49
77975;BME280;67164;51.202;0.278;2024-02-15T00:10:24;101023.98;;;22.27;42.68
77975;BME280;67164;51.202;0.278;2024-02-15T00:12:50;101023.98;;;22.27;42.65
77975;BME280;67164;51.202;0.278;2024-02-15T00:15:16;101022.55;;;22.20;42.72
77975;BME280;67164;51.202;0.278;2024-02-15T00:17:42;101025.50;;;22.22;42.69
77975;BME280;67164;51.202;0.278;2024-02-15T00:20:08;101019.79;;;22.38;42.75
77975;BME280;67164;51.202;0.278;2024-02-15T00:22:33;101024.35;;;21.87;42.76
77975;BME280;67164;51.202;0.278;2024-02-15T00:24:59;101027.17;;;22.07;42.77
77975;BME280;67164;51.202;0.278;2024-02-15T00:27:25;101023.73;;;22.09;42.72
77975;BME280;67164;51.202;0.278;2024-02-15T00:29:51;101028.02;;;21.96;42.88
77975;BME280;67164;51.202;0.278;2024-02-15T00:32:16;101027.03;;;21.97;42.89
77975;BME280;67164;51.202;0.278;2024-02-15T00:34:42;101026.51;;;21.97;42.80
77975;BME280;67164;51.202;0.278;2024-02-15T00:37:08;101025.28;;;21.95;42.78
77975;BME280;67164;51.202;0.278;2024-02-15T00:39:34;101025.08;;;21.88;42.93
77975;BME280;67164;51.202;0.278;2024-02-15T00:42:00;101028.12;;;21.94;42.83
77975;BME280;67164;51.202;0.278;2024-02-15T00:44:26;101027.45;;;21.51;43.06
77975;BME280;67164;51.202;0.278;2024-02-15T00:46:52;101030.96;;;21.82;42.91
77975;BME280;67164;51.202;0.278;2024-02-15T00:49:17;101028.33;;;21.69;43.09
77975;BME280;67164;51.202;0.278;2024-02-15T00:51:43;101021.66;;;21.79;42.96
77975;BME280;67164;51.202;0.278;2024-02-15T00:54:09;101022.62;;;21.68;43.07
77975;BME280;67164;51.202;0.278;2024-02-15T00:56:34;101030.20;;;21.70;43.02
77975;BME280;67164;51.202;0.278;2024-02-15T00:59:00;101029.32;;;21.69;42.98
77975;BME280;67164;51.202;0.278;2024-02-15T01:01:26;101023.51;;;21.72;42.85
77975;BME280;67164;51.202;0.278;2024-02-15T01:03:52;101022.95;;;21.92;42.93
77975;BME280;67164;51.202;0.278;2024-02-15T01:06:17;101016.86;;;21.86;42.99
77975;BME280;67164;51.202;0.278;2024-02-15T01:08:43;101012.14;;;21.79;43.08
77975;BME280;67164;51.202;0.278;2024-02-15T01:11:09;101003.98;;;21.66;43.31
77975;BME280;67164;51.202;0.278;2024-02-15T01:13:35;101009.11;;;21.75;43.12
77975;BME280;67164;51.202;0.278;2024-02-15T01:16:01;101009.34;;;21.39;43.23
77975;BME280;67164;51.202;0.278;2024-02-15T01:18:26;101008.06;;;21.50;43.07
77975;BME280;67164;51.202;0.278;2024-02-15T01:20:52;101006.39;;;21.62;43.21
77975;BME280;67164;51.202;0.278;2024-02-15T01:23:18;100996.83;;;21.36;43.14
77975;BME280;67164;51.202;0.278;2024-02-15T01:25:44;101004.01;;;21.69;43.04
77975;BME280;67164;51.202;0.278;2024-02-15T01:28:10;101000.10;;;21.59;43.17
77975;BME280;67164;51.202;0.278;2024-02-15T01:30:35;100996.70;;;21.32;43.10
77975;BME280;67164;51.202;0.278;2024-02-15T01:33:01;100994.50;;;21.55;43.17
77975;BME280;67164;51.202;0.278;2024-02-15T01:35:27;100987.84;;;21.37;43.07
77975;BME280;67164;51.202;0.278;2024-02-15T01:37:53;100981.30;;;21.61;43.10
77975;BME280;67164;51.202;0.278;2024-02-15T01:40:19;100976.77;;;21.26;43.17
77975;BME280;67164;51.202;0.278;2024-02-15T01:42:45;100967.14;;;21.48;43.18
77975;BME280;67164;51.202;0.278;2024-02-15T01:45:10;100974.49;;;21.42;43.27
77975;BME280;67164;51.202;0.278;2024-02-15T01:47:36;100975.42;;;21.41;43.29
77975;BME280;67164;51.202;0.278;2024-02-15T01:50:02;100976.70;;;21.35;43.05
77975;BME280;67164;51.202;0.278;2024-02-15T01:52:28;100980.41;;;21.57;42.97
77975;BME280;67164;51.202;0.278;2024-02-15T01:54:54;100982.32;;;21.36;42.96
77975;BME280;67164;51.202;0.278;2024-02-15T01:57:20;100980.82;;;21.52;43.05
77975;BME280;67164;51.202;0.278;2024-02-15T01:59:45;100979.01;;;21.53;43.04
77975;BME280;67164;51.202;0.278;2024-02-15T02:02:13;100975.22;;;21.52;43.01
77975;BME280;67164;51.202;0.278;2024-02-15T02:04:37;100971.41;;;21.41;43.27
77975;BME280;67164;51.202;0.278;2024-02-15T02:07:02;100970.00;;;21.21;43.17
77975;BME280;67164;51.202;0.278;2024-02-15T02:09:28;100969.62;;;21.55;42.98
77975;BME280;67164;51.202;0.278;2024-02-15T02:11:54;100967.77;;;21.17;43.15
77975;BME280;67164;51.202;0.278;2024-02-15T02:14:20;100968.74;;;21.43;43.10
77975;BME280;67164;51.202;0.278;2024-02-15T02:16:45;100967.74;;;21.16;43.18
77975;BME280;67164;51.202;0.278;2024-02-15T02:19:11;100966.02;;;21.34;43.24
77975;BME280;67164;51.202;0.278;2024-02-15T02:21:38;100968.18;;;21.50;43.33
77975;BME280;67164;51.202;0.278;2024-02-15T02:24:04;100962.32;;;21.33;43.21
77975;BME280;67164;51.202;0.278;2024-02-15T02:26:30;100962.47;;;21.19;43.04
77975;BME280;67164;51.202;0.278;2024-02-15T02:28:54;100966.01;;;21.37;43.07
77975;BME280;67164;51.202;0.278;2024-02-15T02:31:21;100962.90;;;21.32;43.32
77975;BME280;67164;51.202;0.278;2024-02-15T02:33:50;100958.77;;;21.55;43.21
77975;BME280;67164;51.202;0.278;2024-02-15T02:36:12;100953.42;;;21.37;43.06
77975;BME280;67164;51.202;0.278;2024-02-15T02:38:37;100950.35;;;21.28;43.16
77975;BME280;67164;51.202;0.278;2024-02-15T02:41:04;100946.04;;;21.46;43.30
77975;BME280;67164;51.202;0.278;2024-02-15T02:43:29;100944.35;;;21.33;43.15
77975;BME280;67164;51.202;0.278;2024-02-15T02:45:55;100943.33;;;21.05;43.20
77975;BME280;67164;51.202;0.278;2024-02-15T02:48:21;100940.17;;;21.54;43.18
77975;BME280;67164;51.202;0.278;2024-02-15T02:50:47;100935.97;;;21.21;43.31
77975;BME280;67164;51.202;0.278;2024-02-15T02:53:12;100929.11;;;21.26;43.15
77975;BME280;67164;51.202;0.278;2024-02-15T02:55:38;100928.77;;;21.31;43.50
77975;BME280;67164;51.202;0.278;2024-02-15T02:58:04;100926.95;;;21.21;43.19
77975;BME280;67164;51.202;0.278;2024-02-15T03:00:30;100926.08;;;21.35;43.46
77975;BME280;67164;51.202;0.278;2024-02-15T03:02:55;100924.22;;;21.12;43.41
77975;BME280;67164;51.202;0.278;2024-02-15T03:05:21;100920.26;;;21.31;43.44
77975;BME280;67164;51.202;0.278;2024-02-15T03:07:47;100918.53;;;21.42;43.23
77975;BME280;67164;51.202;0.278;2024-02-15T03:10:13;100918.97;;;21.14;43.31
77975;BME280;67164;51.202;0.278;2024-02-15T03:12:39;100919.35;;;21.17;43.33
77975;BME280;67164;51.202;0.278;2024-02-15T03:15:06;100919.58;;;20.84;43.41
77975;BME280;67164;51.202;0.278;2024-02-15T03:17:30;100910.36;;;21.14;43.22
77975;BME280;67164;51.202;0.278;2024-02-15T03:19:56;100908.40;;;21.15;43.26
77975;BME280;67164;51.202;0.278;2024-02-15T03:22:22;100911.33;;;21.32;43.42
77975;BME280;67164;51.202;0.278;2024-02-15T03:24:47;100914.38;;;21.38;43.18
77975;BME280;67164;51.202;0.278;2024-02-15T03:27:13;100912.74;;;21.35;43.26
77975;BME280;67164;51.202;0.278;2024-02-15T03:29:39;100915.99;;;21.05;43.41
77975;BME280;67164;51.202;0.278;2024-02-15T03:32:06;100914.07;;;20.99;43.52
77975;BME280;67164;51.202;0.278;2024-02-15T03:34:31;100912.04;;;21.30;43.33
77975;BME280;67164;51.202;0.278;2024-02-15T03:36:56;100908.26;;;21.06;43.29
77975;BME280;67164;51.202;0.278;2024-02-15T03:39:22;100910.56;;;21.11;43.16
77975;BME280;67164;51.202;0.278;2024-02-15T03:41:48;100906.41;;;21.33;43.23
77975;BME280;67164;51.202;0.278;2024-02-15T03:44:14;100907.67;;;21.21;43.47
77975;BME280;67164;51.202;0.278;2024-02-15T03:46:39;100912.41;;;21.26;43.38
77975;BME280;67164;51.202;0.278;2024-02-15T03:49:05;100911.07;;;21.30;43.32
77975;BME280;67164;51.202;0.278;2024-02-15T03:51:31;100911.15;;;21.06;43.23
77975;BME280;67164;51.202;0.278;2024-02-15T03:53:57;100908.78;;;21.05;43.25
77975;BME280;67164;51.202;0.278;2024-02-15T03:56:22;100906.10;;;20.98;43.46
77975;BME280;67164;51.202;0.278;2024-02-15T03:58:48;100910.71;;;21.16;43.55
77975;BME280;67164;51.202;0.278;2024-02-15T04:01:14;100905.41;;;21.00;43.39
77975;BME280;67164;51.202;0.278;2024-02-15T04:03:40;100902.25;;;20.99;43.29
77975;BME280;67164;51.202;0.278;2024-02-15T04:06:06;100899.87;;;21.20;43.40
77975;BME280;67164;51.202;0.278;2024-02-15T04:08:31;100900.13;;;21.22;43.33
77975;BME280;67164;51.202;0.278;2024-02-15T04:10:57;100897.10;;;20.96;43.31
77975;BME280;67164;51.202;0.278;2024-02-15T04:13:23;100898.31;;;21.14;43.48
77975;BME280;67164;51.202;0.278;2024-02-15T04:15:49;100893.88;;;20.91;43.39
77975;BME280;67164;51.202;0.278;2024-02-15T04:18:15;100892.29;;;20.94;43.33
77975;BME280;67164;51.202;0.278;2024-02-15T04:20:40;100892.60;;;21.25;43.13
77975;BME280;67164;51.202;0.278;2024-02-15T04:23:06;100896.41;;;21.25;43.06
77975;BME280;67164;51.202;0.278;2024-02-15T04:25:32;100894.03;;;21.25;43.12
77975;BME280;67164;51.202;0.278;2024-02-15T04:27:58;100897.21;;;21.27;43.05
77975;BME280;67164;51.202;0.278;2024-02-15T04:30:24;100890.98;;;21.25;43.05
77975;BME280;67164;51.202;0.278;2024-02-15T04:32:49;100893.36;;;21.24;43.01
77975;BME280;67164;51.202;0.278;2024-02-15T04:35:15;100886.53;;;20.75;42.95
77975;BME280;67164;51.202;0.278;2024-02-15T04:37:41;100892.63;;;21.09;42.88
77975;BME280;67164;51.202;0.278;2024-02-15T04:40:07;100893.43;;;21.31;43.04
77975;BME280;67164;51.202;0.278;2024-02-15T04:42:32;100891.97;;;21.31;43.03
77975;BME280;67164;51.202;0.278;2024-02-15T04:44:58;100883.04;;;21.32;42.98
77975;BME280;67164;51.202;0.278;2024-02-15T04:47:24;100881.43;;;21.00;43.02
77975;BME280;67164;51.202;0.278;2024-02-15T04:49:50;100879.84;;;20.94;43.06
77975;BME280;67164;51.202;0.278;2024-02-15T04:52:16;100877.11;;;21.18;43.12
77975;BME280;67164;51.202;0.278;2024-02-15T04:54:41;100877.12;;;21.09;43.27
77975;BME280;67164;51.202;0.278;2024-02-15T04:57:07;100874.76;;;21.24;43.06
77975;BME280;67164;51.202;0.278;2024-02-15T04:59:33;100878.55;;;20.93;43.14
77975;BME280;67164;51.202;0.278;2024-02-15T05:01:59;100872.67;;;20.88;43.16
77975;BME280;67164;51.202;0.278;2024-02-15T05:04:24;100874.82;;;21.05;43.38
77975;BME280;67164;51.202;0.278;2024-02-15T05:06:50;100874.57;;;21.13;43.19
77975;BME280;67164;51.202;0.278;2024-02-15T05:09:16;100877.80;;;21.12;43.22
77975;BME280;67164;51.202;0.278;2024-02-15T05:11:42;100878.72;;;21.16;43.20
77975;BME280;67164;51.202;0.278;2024-02-15T05:14:08;100877.79;;;21.04;43.29
77975;BME280;67164;51.202;0.278;2024-02-15T05:16:33;100875.26;;;21.05;43.25
77975;BME280;67164;51.202;0.278;2024-02-15T05:18:59;100878.22;;;20.90;43.16
77975;BME280;67164;51.202;0.278;2024-02-15T05:21:25;100868.07;;;21.12;43.17
77975;BME280;67164;51.202;0.278;2024-02-15T05:23:51;100868.73;;;21.06;43.30
77975;BME280;67164;51.202;0.278;2024-02-15T05:26:16;100870.96;;;21.03;43.33
77975;BME280;67164;51.202;0.278;2024-02-15T05:28:42;100875.38;;;21.07;43.25
77975;BME280;67164;51.202;0.278;2024-02-15T05:31:10;100864.50;;;21.08;43.19
77975;BME280;67164;51.202;0.278;2024-02-15T05:33:34;100865.39;;;21.01;43.32
77975;BME280;67164;51.202;0.278;2024-02-15T05:36:00;100867.32;;;20.80;43.23
77975;BME280;67164;51.202;0.278;2024-02-15T05:38:25;100864.04;;;21.12;43.12
77975;BME280;67164;51.202;0.278;2024-02-15T05:40:52;100867.96;;;21.01;43.29
77975;BME280;67164;51.202;0.278;2024-02-15T05:43:17;100873.81;;;21.01;43.23
77975;BME280;67164;51.202;0.278;2024-02-15T05:45:43;100867.20;;;21.05;43.16
77975;BME280;67164;51.202;0.278;2024-02-15T05:48:08;100874.47;;;21.05;43.08
77975;BME280;67164;51.202;0.278;2024-02-15T05:50:34;100874.67;;;21.09;42.99
77975;BME280;67164;51.202;0.278;2024-02-15T05:53:00;100869.74;;;21.07;43.06
77975;BME280;67164;51.202;0.278;2024-02-15T05:55:26;100869.88;;;20.78;43.05
77975;BME280;67164;51.202;0.278;2024-02-15T05:57:52;100868.16;;;21.00;43.07
77975;BME280;67164;51.202;0.278;2024-02-15T06:00:18;100871.95;;;21.01;43.08
77975;BME280;67164;51.202;0.278;2024-02-15T06:02:43;100871.67;;;20.96;43.19
77975;BME280;67164;51.202;0.278;2024-02-15T06:05:09;100873.98;;;20.98;43.13
77975;BME280;67164;51.202;0.278;2024-02-15T06:07:35;100871.37;;;21.00;43.10
77975;BME280;67164;51.202;0.278;2024-02-15T06:10:01;100871.70;;;20.92;43.22
77975;BME280;67164;51.202;0.278;2024-02-15T06:12:27;100870.21;;;20.98;43.14
77975;BME280;67164;51.202;0.278;2024-02-15T06:14:52;100871.16;;;20.96;43.07
77975;BME280;67164;51.202;0.278;2024-02-15T06:17:18;100866.71;;;20.87;43.28
77975;BME280;67164;51.202;0.278;2024-02-15T06:19:44;100868.12;;;20.87;43.33
77975;BME280;67164;51.202;0.278;2024-02-15T06:22:10;100870.21;;;20.92;43.22
77975;BME280;67164;51.202;0.278;2024-02-15T06:24:35;100867.87;;;20.90;43.22
77975;BME280;67164;51.202;0.278;2024-02-15T06:27:01;100868.64;;;20.95;43.08
77975;BME280;67164;51.202;0.278;2024-02-15T06:29:27;100873.28;;;20.90;43.16
77975;BME280;67164;51.202;0.278;2024-02-15T06:31:53;100869.27;;;20.92;43.12
77975;BME280;67164;51.202;0.278;2024-02-15T06:34:19;100868.80;;;20.90;43.11
77975;BME280;67164;51.202;0.278;2024-02-15T06:36:46;100860.90;;;20.59;43.16
77975;BME280;67164;51.202;0.278;2024-02-15T06:39:10;100856.43;;;20.81;43.20
77975;BME280;67164;51.202;0.278;2024-02-15T06:41:36;100855.41;;;20.86;43.09
77975;BME280;67164;51.202;0.278;2024-02-15T06:44:02;100858.83;;;20.63;43.07
77975;BME280;67164;51.202;0.278;2024-02-15T06:46:27;100850.34;;;21.02;43.25
77975;BME280;67164;51.202;0.278;2024-02-15T06:48:54;100841.39;;;20.80;43.16
77975;BME280;67164;51.202;0.278;2024-02-15T06:51:19;100843.89;;;21.01;43.22
77975;BME280;67164;51.202;0.278;2024-02-15T06:53:45;100845.63;;;20.72;43.24
77975;BME280;67164;51.202;0.278;2024-02-15T06:56:11;100845.00;;;20.81;43.20
77975;BME280;67164;51.202;0.278;2024-02-15T06:58:37;100843.19;;;20.73;43.30
77975;BME280;67164;51.202;0.278;2024-02-15T07:01:03;100843.12;;;20.46;43.32
77975;BME280;67164;51.202;0.278;2024-02-15T07:03:29;100846.08;;;20.75;43.20
77975;BME280;67164;51.202;0.278;2024-02-15T07:05:54;100848.53;;;20.73;43.26
77975;BME280;67164;51.202;0.278;2024-02-15T07:08:20;100850.43;;;20.94;43.22
77975;BME280;67164;51.202;0.278;2024-02-15T07:10:46;100845.39;;;20.68;43.25
77975;BME280;67164;51.202;0.278;2024-02-15T07:13:11;100845.06;;;20.69;43.25
77975;BME280;67164;51.202;0.278;2024-02-15T07:15:37;100848.07;;;20.70;43.19
77975;BME280;67164;51.202;0.278;2024-02-15T07:18:04;100849.49;;;20.70;43.18
77975;BME280;67164;51.202;0.278;2024-02-15T07:20:28;100851.46;;;20.92;43.23
77975;BME280;67164;51.202;0.278;2024-02-15T07:22:54;100848.53;;;20.67;43.23
77975;BME280;67164;51.202;0.278;2024-02-15T07:25:20;100851.55;;;20.71;43.17
77975;BME280;67164;51.202;0.278;2024-02-15T07:27:46;100853.59;;;20.90;43.23
77975;BME280;67164;51.202;0.278;2024-02-15T07:30:12;100854.23;;;20.66;43.18
77975;BME280;67164;51.202;0.278;2024-02-15T07:32:37;100857.09;;;20.86;43.25
77975;BME280;67164;51.202;0.278;2024-02-15T07:35:04;100853.17;;;20.59;43.25
77975;BME280;67164;51.202;0.278;2024-02-15T07:37:29;100853.50;;;20.85;43.18
77975;BME280;67164;51.202;0.278;2024-02-15T07:39:55;100857.17;;;20.59;43.19
77975;BME280;67164;51.202;0.278;2024-02-15T07:42:21;100854.29;;;20.89;43.11
77975;BME280;67164;51.202;0.278;2024-02-15T07:44:46;100855.08;;;20.59;43.16
77975;BME280;67164;51.202;0.278;2024-02-15T07:47:12;100858.93;;;20.60;43.15
77975;BME280;67164;51.202;0.278;2024-02-15T07:49:38;100859.72;;;20.63;43.14
77975;BME280;67164;51.202;0.278;2024-02-15T07:52:04;100858.74;;;20.32;43.24
77975;BME280;67164;51.202;0.278;2024-02-15T07:54:30;100859.93;;;20.81;43.26
77975;BME280;67164;51.202;0.278;2024-02-15T07:56:55;100858.41;;;20.33;43.23
77975;BME280;67164;51.202;0.278;2024-02-15T07:59:21;100860.36;;;20.59;43.16
77975;BME280;67164;51.202;0.278;2024-02-15T08:01:47;100864.16;;;20.83;43.13
77975;BME280;67164;51.202;0.278;2024-02-15T08:04:13;100857.10;;;20.56;43.14
77975;BME280;67164;51.202;0.278;2024-02-15T08:06:38;100860.18;;;20.51;43.20
77975;BME280;67164;51.202;0.278;2024-02-15T08:09:04;100857.72;;;20.56;43.12
77975;BME280;67164;51.202;0.278;2024-02-15T08:11:30;100857.99;;;20.48;43.24
77975;BME280;67164;51.202;0.278;2024-02-15T08:13:56;100857.06;;;20.71;43.23
77975;BME280;67164;51.202;0.278;2024-02-15T08:16:22;100854.22;;;20.46;43.23
77975;BME280;67164;51.202;0.278;2024-02-15T08:18:48;100850.85;;;20.46;43.21
77975;BME280;67164;51.202;0.278;2024-02-15T08:21:13;100847.39;;;20.43;43.24
77975;BME280;67164;51.202;0.278;2024-02-15T08:23:39;100845.65;;;20.47;43.18
77975;BME280;67164;51.202;0.278;2024-02-15T08:26:08;100841.97;;;20.53;43.11
77975;BME280;67164;51.202;0.278;2024-02-15T08:28:31;100837.76;;;20.73;43.16
77975;BME280;67164;51.202;0.278;2024-02-15T08:30:56;100838.64;;;20.51;43.16
77975;BME280;67164;51.202;0.278;2024-02-15T08:33:24;100834.41;;;20.51;43.10
77975;BME280;67164;51.202;0.278;2024-02-15T08:35:48;100833.51;;;20.23;43.14
77975;BME280;67164;51.202;0.278;2024-02-15T08:38:14;100831.00;;;20.51;43.24
77975;BME280;67164;51.202;0.278;2024-02-15T08:40:40;100829.29;;;20.53;43.17
77975;BME280;67164;51.202;0.278;2024-02-15T08:43:05;100825.45;;;20.59;43.15
77975;BME280;67164;51.202;0.278;2024-02-15T08:45:31;100823.63;;;20.53;43.17
77975;BME280;67164;51.202;0.278;2024-02-15T08:47:57;100815.58;;;20.69;43.32
77975;BME280;67164;51.202;0.278;2024-02-15T08:50:23;100814.39;;;20.42;43.69
77975;BME280;67164;51.202;0.278;2024-02-15T08:52:49;100808.86;;;20.70;44.07
77975;BME280;67164;51.202;0.278;2024-02-15T08:55:14;100806.73;;;20.54;43.81
77975;BME280;67164;51.202;0.278;2024-02-15T08:57:40;100806.50;;;20.68;44.00
77975;BME280;67164;51.202;0.278;2024-02-15T09:00:07;100804.68;;;20.31;44.73
77975;BME280;67164;51.202;0.278;2024-02-15T09:02:32;100804.96;;;21.04;43.52
77975;BME280;67164;51.202;0.278;2024-02-15T09:04:57;100799.97;;;21.49;44.22
77975;BME280;67164;51.202;0.278;2024-02-15T09:07:23;100788.41;;;21.22;44.52
77975;BME280;67164;51.202;0.278;2024-02-15T09:09:49;100779.67;;;21.36;44.34
77975;BME280;67164;51.202;0.278;2024-02-15T09:12:15;100771.77;;;21.12;44.66
77975;BME280;67164;51.202;0.278;2024-02-15T09:14:41;100774.77;;;21.29;44.70
77975;BME280;67164;51.202;0.278;2024-02-15T09:17:06;100773.79;;;21.13;44.88
77975;BME280;67164;51.202;0.278;2024-02-15T09:19:32;100768.50;;;21.24;44.50
77975;BME280;67164;51.202;0.278;2024-02-15T09:21:58;100776.11;;;21.13;44.68
77975;BME280;67164;51.202;0.278;2024-02-15T09:24:24;100774.84;;;21.19;44.47
77975;BME280;67164;51.202;0.278;2024-02-15T09:26:49;100765.98;;;21.16;45.07
77975;BME280;67164;51.202;0.278;2024-02-15T09:29:15;100764.70;;;20.77;45.90
77975;BME280;67164;51.202;0.278;2024-02-15T09:31:40;100769.22;;;21.23;44.80
77975;BME280;67164;51.202;0.278;2024-02-15T09:34:06;100768.01;;;21.15;44.81
77975;BME280;67164;51.202;0.278;2024-02-15T09:36:34;100765.93;;;21.37;44.73
77975;BME280;67164;51.202;0.278;2024-02-15T09:38:57;100763.26;;;21.52;44.57
77975;BME280;67164;51.202;0.278;2024-02-15T09:41:23;100760.56;;;21.65;44.58
77975;BME280;67164;51.202;0.278;2024-02-15T09:43:48;100765.87;;;21.26;44.76
77975;BME280;67164;51.202;0.278;2024-02-15T09:46:14;100758.25;;;21.68;44.61
77975;BME280;67164;51.202;0.278;2024-02-15T09:48:40;100755.92;;;21.57;45.41
77975;BME280;67164;51.202;0.278;2024-02-15T09:51:07;100752.48;;;21.48;45.10
77975;BME280;67164;51.202;0.278;2024-02-15T09:53:31;100754.20;;;21.32;45.44
77975;BME280;67164;51.202;0.278;2024-02-15T09:55:57;100750.19;;;21.27;45.83
77975;BME280;67164;51.202;0.278;2024-02-15T09:58:22;100741.95;;;21.60;45.15
77975;BME280;67164;51.202;0.278;2024-02-15T10:00:48;100740.28;;;21.46;45.43
77975;BME280;67164;51.202;0.278;2024-02-15T10:03:18;100735.40;;;21.33;45.39
77975;BME280;67164;51.202;0.278;2024-02-15T10:05:40;100735.14;;;21.56;45.47
77975;BME280;67164;51.202;0.278;2024-02-15T10:08:06;100737.98;;;21.52;45.83
77975;BME280;67164;51.202;0.278;2024-02-15T10:10:31;100737.04;;;21.20;46.17
77975;BME280;67164;51.202;0.278;2024-02-15T10:12:57;100733.67;;;21.09;45.76
77975;BME280;67164;51.202;0.278;2024-02-15T10:15:29;100734.39;;;21.38;45.91
77975;BME280;67164;51.202;0.278;2024-02-15T10:17:54;100733.94;;;21.34;45.33
77975;BME280;67164;51.202;0.278;2024-02-15T10:20:14;100733.71;;;21.54;45.22
77975;BME280;67164;51.202;0.278;2024-02-15T10:22:40;100737.06;;;21.32;45.69
77975;BME280;67164;51.202;0.278;2024-02-15T10:25:12;100730.63;;;21.15;45.62
77975;BME280;67164;51.202;0.278;2024-02-15T10:27:31;100724.39;;;21.60;45.20
77975;BME280;67164;51.202;0.278;2024-02-15T10:32:23;100722.60;;;21.59;45.38
77975;BME280;67164;51.202;0.278;2024-02-15T10:34:49;100725.04;;;21.19;44.60
77975;BME280;67164;51.202;0.278;2024-02-15T10:37:15;100725.44;;;20.93;45.49
77975;BME280;67164;51.202;0.278;2024-02-15T10:39:40;100724.96;;;21.21;45.15
77975;BME280;67164;51.202;0.278;2024-02-15T10:42:07;100724.43;;;21.09;44.89
77975;BME280;67164;51.202;0.278;2024-02-15T10:44:32;100732.09;;;21.20;45.14
77975;BME280;67164;51.202;0.278;2024-02-15T10:46:58;100726.88;;;20.98;45.07
77975;BME280;67164;51.202;0.278;2024-02-15T10:49:24;100721.63;;;21.18;45.17
77975;BME280;67164;51.202;0.278;2024-02-15T10:51:52;100706.10;;;21.01;44.93
77975;BME280;67164;51.202;0.278;2024-02-15T10:54:23;100699.89;;;21.29;44.88
77975;BME280;67164;51.202;0.278;2024-02-15T10:56:43;100697.15;;;21.06;45.21
77975;BME280;67164;51.202;0.278;2024-02-15T10:59:12;100693.05;;;20.93;44.97
77975;BME280;67164;51.202;0.278;2024-02-15T11:01:34;100685.46;;;21.07;45.17
77975;BME280;67164;51.202;0.278;2024-02-15T11:04:01;100683.03;;;21.00;45.25
77975;BME280;67164;51.202;0.278;2024-02-15T11:06:24;100679.34;;;21.25;44.91
77975;BME280;67164;51.202;0.278;2024-02-15T11:08:50;100670.39;;;21.21;44.71
77975;BME280;67164;51.202;0.278;2024-02-15T11:11:15;100672.98;;;21.32;44.74
77975;BME280;67164;51.202;0.278;2024-02-15T11:13:41;100669.44;;;21.28;45.03
77975;BME280;67164;51.202;0.278;2024-02-15T11:16:07;100671.16;;;21.19;44.91
77975;BME280;67164;51.202;0.278;2024-02-15T11:18:43;100671.23;;;21.43;45.05
77975;BME280;67164;51.202;0.278;2024-02-15T11:20:58;100667.36;;;21.23;45.38
77975;BME280;67164;51.202;0.278;2024-02-15T11:23:26;100664.22;;;21.44;45.06
77975;BME280;67164;51.202;0.278;2024-02-15T11:25:50;100662.65;;;21.28;44.89
77975;BME280;67164;51.202;0.278;2024-02-15T11:30:41;100654.67;;;21.45;45.23
77975;BME280;67164;51.202;0.278;2024-02-15T11:35:33;100648.25;;;21.10;45.24
77975;BME280;67164;51.202;0.278;2024-02-15T11:37:59;100649.95;;;20.58;45.80
77975;BME280;67164;51.202;0.278;2024-02-15T11:40:26;100641.27;;;21.06;45.60
77975;BME280;67164;51.202;0.278;2024-02-15T11:42:52;100628.43;;;21.02;45.78
77975;BME280;67164;51.202;0.278;2024-02-15T11:45:16;100630.00;;;20.95;45.95
77975;BME280;67164;51.202;0.278;2024-02-15T11:47:42;100621.09;;;20.97;45.85
77975;BME280;67164;51.202;0.278;2024-02-15T11:50:10;100615.37;;;20.97;46.18
77975;BME280;67164;51.202;0.278;2024-02-15T11:52:33;100613.42;;;21.08;46.03
77975;BME280;67164;51.202;0.278;2024-02-15T11:55:04;100609.50;;;21.06;45.98
77975;BME280;67164;51.202;0.278;2024-02-15T11:57:25;100601.94;;;20.81;46.35
77975;BME280;67164;51.202;0.278;2024-02-15T11:59:51;100593.15;;;20.97;45.97
77975;BME280;67164;51.202;0.278;2024-02-15T12:02:17;100585.42;;;21.18;45.95
77975;BME280;67164;51.202;0.278;2024-02-15T12:04:42;100581.89;;;21.13;45.94
77975;BME280;67164;51.202;0.278;2024-02-15T12:07:08;100577.50;;;21.68;45.92
77975;BME280;67164;51.202;0.278;2024-02-15T12:09:33;100575.01;;;21.29;45.72
77975;BME280;67164;51.202;0.278;2024-02-15T12:11:59;100573.59;;;21.25;45.77
77975;BME280;67164;51.202;0.278;2024-02-15T12:14:25;100571.51;;;21.16;45.82
77975;BME280;67164;51.202;0.278;2024-02-15T12:17:01;100566.49;;;21.28;45.50
77975;BME280;67164;51.202;0.278;2024-02-15T12:19:17;100563.94;;;21.37;45.48
77975;BME280;67164;51.202;0.278;2024-02-15T12:21:42;100566.78;;;21.41;45.51
77975;BME280;67164;51.202;0.278;2024-02-15T12:24:08;100565.98;;;21.45;45.41
77975;BME280;67164;51.202;0.278;2024-02-15T12:26:34;100560.51;;;20.73;45.68
77975;BME280;67164;51.202;0.278;2024-02-15T12:29:00;100554.71;;;21.42;45.37
77975;BME280;67164;51.202;0.278;2024-02-15T12:31:26;100552.09;;;21.26;45.68
77975;BME280;67164;51.202;0.278;2024-02-15T12:34:00;100557.86;;;21.37;45.48
77975;BME280;67164;51.202;0.278;2024-02-15T12:36:19;100544.26;;;20.97;45.53
77975;BME280;67164;51.202;0.278;2024-02-15T12:38:43;100536.08;;;21.33;45.50
77975;BME280;67164;51.202;0.278;2024-02-15T12:41:18;100535.77;;;21.08;45.72
77975;BME280;67164;51.202;0.278;2024-02-15T12:43:34;100531.44;;;21.24;45.97
77975;BME280;67164;51.202;0.278;2024-02-15T12:46:00;100525.71;;;21.32;46.04
77975;BME280;67164;51.202;0.278;2024-02-15T12:48:26;100519.97;;;21.42;45.77